Check out our new PWSWeather beta!
PWSweather.com
Personal Weather Stations
Station Observations
FAUSKE
Nordland, Norway, FauskeNO 8200

Nordland, NorwayFauskeNO 8200

Lat: 67.2607586, Lon: 15.4114204

Elevation: 40

Station Type: Davis Vantage PRO2

http://www.bjornli.net/weather.html

Latest ConditionsUpdated 12:40:00 PM GMT+01:01 Thursday, Feb 27, 2020
Currently Today's Max Today's Min Today's Average
Temperature 34.6°F1.4°C 35.2°F1.8°C 18.8°F-7.3°C 25.3°F-3.7°C
Dew Point 15.5°F-9.2°C 15.5°F-9.2°C 5.8°F-14.6°C 9.7°F-12.4°C
Winds 12.0 mph SE19.3 kmh SE 18.0 mph -29.0 kmh - - 7.5 mph 12.1 kmh
Wind Gusts 19.0 mph30.6 kmh 22.0 mph35.4 kmh - -
Humidity 45% 59% 42% 51%
Pressure 29.29 in991.9 mb 29.37 in994.6 mb 29.29 in991.9 mb -
Hour Temp Dew Point Humidity Winds Wind Gusts Pressure Precip Precip Rate Daily Precip Total
12:40 PM 34.6°F1.4°C 15.5°F-9.2°C 45% 12.0 mph SE19.3 kmh SE 19.0 mph30.6 kmh 29.29 in991.9 mb 0.00 in0.0 mm 0.00 in0.0 mm 0.00 in0.0 mm
12:30 PM 34.7°F1.5°C 15.0°F-9.4°C 44% 14.0 mph SE22.5 kmh SE 16.0 mph25.7 kmh 29.29 in991.9 mb 0.00 in0.0 mm 0.00 in0.0 mm 0.00 in0.0 mm
12:10 PM 35.1°F1.7°C 14.9°F-9.5°C 43% 17.0 mph SE27.4 kmh SE 19.0 mph30.6 kmh 29.30 in992.2 mb 0.00 in0.0 mm 0.00 in0.0 mm 0.00 in0.0 mm
12:00 PM 35.2°F1.8°C 14.4°F-9.8°C 42% 12.0 mph SE19.3 kmh SE 14.0 mph22.5 kmh 29.29 in991.9 mb 0.00 in0.0 mm 0.00 in0.0 mm 0.00 in0.0 mm
11:40 AM 34.5°F1.4°C 15.4°F-9.2°C 45% 18.0 mph SE29.0 kmh SE 18.0 mph29.0 kmh 29.30 in992.2 mb 0.00 in0.0 mm 0.00 in0.0 mm 0.00 in0.0 mm
11:30 AM 34.2°F1.2°C 15.1°F-9.4°C 45% 10.0 mph SE16.1 kmh SE 14.0 mph22.5 kmh 29.30 in992.2 mb 0.00 in0.0 mm 0.00 in0.0 mm 0.00 in0.0 mm
11:10 AM 33.3°F0.7°C 14.8°F-9.6°C 46% 5.0 mph SE8.0 kmh SE 17.0 mph27.4 kmh 29.30 in992.2 mb 0.00 in0.0 mm 0.00 in0.0 mm 0.00 in0.0 mm
11:00 AM 33.0°F0.6°C 14.0°F-10.0°C 45% 12.0 mph SE19.3 kmh SE 12.0 mph19.3 kmh 29.30 in992.2 mb 0.00 in0.0 mm 0.00 in0.0 mm 0.00 in0.0 mm
10:40 AM 32.2°F0.1°C 13.8°F-10.1°C 46% 11.0 mph SE17.7 kmh SE 17.0 mph27.4 kmh 29.30 in992.2 mb 0.00 in0.0 mm 0.00 in0.0 mm 0.00 in0.0 mm
10:30 AM 32.0°F0.0°C 14.6°F-9.7°C 48% 11.0 mph SE17.7 kmh SE 17.0 mph27.4 kmh 29.30 in992.2 mb 0.00 in0.0 mm 0.00 in0.0 mm 0.00 in0.0 mm
10:10 AM 31.4°F-0.3°C 14.0°F-10.0°C 48% 7.0 mph SE11.3 kmh SE 17.0 mph27.4 kmh 29.30 in992.2 mb 0.00 in0.0 mm 0.00 in0.0 mm 0.00 in0.0 mm
10:00 AM 30.9°F-0.6°C 13.5°F-10.3°C 48% 11.0 mph SE17.7 kmh SE 16.0 mph25.7 kmh 29.30 in992.2 mb 0.00 in0.0 mm 0.00 in0.0 mm 0.00 in0.0 mm
09:40 AM 29.5°F-1.4°C 12.7°F-10.7°C 49% 13.0 mph SE20.9 kmh SE 16.0 mph25.7 kmh 29.30 in992.2 mb 0.00 in0.0 mm 0.00 in0.0 mm 0.00 in0.0 mm
09:30 AM 28.9°F-1.7°C 11.7°F-11.3°C 48% 6.0 mph S9.7 kmh S 6.0 mph9.7 kmh 29.30 in992.2 mb 0.00 in0.0 mm 0.00 in0.0 mm 0.00 in0.0 mm
09:10 AM 28.2°F-2.1°C 11.5°F-11.4°C 49% 5.0 mph SSE8.0 kmh SSE 14.0 mph22.5 kmh 29.30 in992.2 mb 0.00 in0.0 mm 0.00 in0.0 mm 0.00 in0.0 mm
09:00 AM 27.5°F-2.5°C 10.4°F-12.0°C 48% 5.0 mph SSE8.0 kmh SSE 8.0 mph12.9 kmh 29.30 in992.2 mb 0.00 in0.0 mm 0.00 in0.0 mm 0.00 in0.0 mm
08:40 AM 26.7°F-2.9°C 10.6°F-11.9°C 50% 11.0 mph SSE17.7 kmh SSE 15.0 mph24.1 kmh 29.30 in992.2 mb 0.00 in0.0 mm 0.00 in0.0 mm 0.00 in0.0 mm
08:30 AM 26.2°F-3.2°C 10.6°F-11.9°C 51% 13.0 mph SE20.9 kmh SE 13.0 mph20.9 kmh 29.31 in992.6 mb 0.00 in0.0 mm 0.00 in0.0 mm 0.00 in0.0 mm
08:10 AM 24.8°F-4.0°C 10.1°F-12.2°C 53% 10.0 mph SSE16.1 kmh SSE 16.0 mph25.7 kmh 29.31 in992.6 mb 0.00 in0.0 mm 0.00 in0.0 mm 0.00 in0.0 mm
08:00 AM 24.2°F-4.3°C 9.1°F-12.7°C 52% 10.0 mph SSE16.1 kmh SSE 12.0 mph19.3 kmh 29.31 in992.6 mb 0.00 in0.0 mm 0.00 in0.0 mm 0.00 in0.0 mm
07:40 AM 23.9°F-4.5°C 8.9°F-12.8°C 52% 8.0 mph SE12.9 kmh SE 15.0 mph24.1 kmh 29.31 in992.6 mb 0.00 in0.0 mm 0.00 in0.0 mm 0.00 in0.0 mm
07:30 AM 23.7°F-4.6°C 9.1°F-12.7°C 53% 12.0 mph SE19.3 kmh SE 14.0 mph22.5 kmh 29.31 in992.6 mb 0.00 in0.0 mm 0.00 in0.0 mm 0.00 in0.0 mm
07:10 AM 23.5°F-4.7°C 9.7°F-12.4°C 55% 7.0 mph SSE11.3 kmh SSE 17.0 mph27.4 kmh 29.31 in992.6 mb 0.00 in0.0 mm 0.00 in0.0 mm 0.00 in0.0 mm
07:00 AM 23.9°F-4.5°C 8.9°F-12.8°C 52% 14.0 mph SSE22.5 kmh SSE 17.0 mph27.4 kmh 29.31 in992.6 mb 0.00 in0.0 mm 0.00 in0.0 mm 0.00 in0.0 mm
06:40 AM 23.5°F-4.7°C 8.9°F-12.8°C 53% 11.0 mph SSE17.7 kmh SSE 20.0 mph32.2 kmh 29.30 in992.2 mb 0.00 in0.0 mm 0.00 in0.0 mm 0.00 in0.0 mm
06:30 AM 23.7°F-4.6°C 8.7°F-12.9°C 52% 9.0 mph SE14.5 kmh SE 14.0 mph22.5 kmh 29.31 in992.6 mb 0.00 in0.0 mm 0.00 in0.0 mm 0.00 in0.0 mm
06:10 AM 23.5°F-4.7°C 9.3°F-12.6°C 54% 6.0 mph SE9.7 kmh SE 22.0 mph35.4 kmh 29.31 in992.6 mb 0.00 in0.0 mm 0.00 in0.0 mm 0.00 in0.0 mm
06:00 AM 23.4°F-4.8°C 9.2°F-12.7°C 54% 14.0 mph SE22.5 kmh SE 16.0 mph25.7 kmh 29.31 in992.6 mb 0.00 in0.0 mm 0.00 in0.0 mm 0.00 in0.0 mm
05:40 AM 23.5°F-4.7°C 9.7°F-12.4°C 55% 12.0 mph SE19.3 kmh SE 18.0 mph29.0 kmh 29.32 in992.9 mb 0.00 in0.0 mm 0.00 in0.0 mm 0.00 in0.0 mm
05:30 AM 23.4°F-4.8°C 9.6°F-12.4°C 55% 5.0 mph SE8.0 kmh SE 10.0 mph16.1 kmh 29.32 in992.9 mb 0.00 in0.0 mm 0.00 in0.0 mm 0.00 in0.0 mm
05:10 AM 23.2°F-4.9°C 9.0°F-12.8°C 54% 9.0 mph SE14.5 kmh SE 14.0 mph22.5 kmh 29.32 in992.9 mb 0.00 in0.0 mm 0.00 in0.0 mm 0.00 in0.0 mm
05:00 AM 22.5°F-5.3°C 9.2°F-12.7°C 56% 4.0 mph SE6.4 kmh SE 6.0 mph9.7 kmh 29.32 in992.9 mb 0.00 in0.0 mm 0.00 in0.0 mm 0.00 in0.0 mm
04:40 AM 18.8°F-7.3°C 6.9°F-13.9°C 59% 5.0 mph E8.0 kmh E 7.0 mph11.3 kmh 29.33 in993.2 mb 0.00 in0.0 mm 0.00 in0.0 mm 0.00 in0.0 mm
04:30 AM 19.6°F-6.9°C 6.1°F-14.4°C 55% 4.0 mph E6.4 kmh E 4.0 mph6.4 kmh 29.33 in993.2 mb 0.00 in0.0 mm 0.00 in0.0 mm 0.00 in0.0 mm
04:10 AM 20.8°F-6.2°C 7.2°F-13.8°C 55% Calm Calm 9.0 mph14.5 kmh 29.33 in993.2 mb 0.00 in0.0 mm 0.00 in0.0 mm 0.00 in0.0 mm
04:00 AM 20.8°F-6.2°C 7.6°F-13.6°C 56% 4.0 mph SE6.4 kmh SE 9.0 mph14.5 kmh 29.33 in993.2 mb 0.00 in0.0 mm 0.00 in0.0 mm 0.00 in0.0 mm
03:40 AM 20.2°F-6.6°C 5.8°F-14.6°C 53% Calm Calm -- 29.33 in993.2 mb 0.00 in0.0 mm 0.00 in0.0 mm 0.00 in0.0 mm
03:30 AM 20.1°F-6.6°C 6.1°F-14.4°C 54% Calm Calm -- 29.33 in993.2 mb 0.00 in0.0 mm 0.00 in0.0 mm 0.00 in0.0 mm
03:10 AM 20.2°F-6.6°C 6.6°F-14.1°C 55% Calm Calm -- 29.34 in993.6 mb 0.00 in0.0 mm 0.00 in0.0 mm 0.00 in0.0 mm
03:00 AM 21.1°F-6.1°C 6.2°F-14.3°C 52% Calm Calm -- 29.34 in993.6 mb 0.00 in0.0 mm 0.00 in0.0 mm 0.00 in0.0 mm
02:40 AM 22.2°F-5.4°C 7.7°F-13.5°C 53% Calm Calm 6.0 mph9.7 kmh 29.35 in993.9 mb 0.00 in0.0 mm 0.00 in0.0 mm 0.00 in0.0 mm
02:30 AM 22.3°F-5.4°C 6.9°F-13.9°C 51% 4.0 mph E6.4 kmh E 4.0 mph6.4 kmh 29.35 in993.9 mb 0.00 in0.0 mm 0.00 in0.0 mm 0.00 in0.0 mm
02:10 AM 20.9°F-6.2°C 6.9°F-13.9°C 54% Calm Calm 10.0 mph16.1 kmh 29.35 in993.9 mb 0.00 in0.0 mm 0.00 in0.0 mm 0.00 in0.0 mm
02:00 AM 21.8°F-5.7°C 7.3°F-13.7°C 53% 7.0 mph SE11.3 kmh SE 10.0 mph16.1 kmh 29.35 in993.9 mb 0.00 in0.0 mm 0.00 in0.0 mm 0.00 in0.0 mm
01:40 AM 20.3°F-6.5°C 6.7°F-14.1°C 55% 5.0 mph SE8.0 kmh SE 11.0 mph17.7 kmh 29.35 in993.9 mb 0.00 in0.0 mm 0.00 in0.0 mm 0.00 in0.0 mm
01:30 AM 20.2°F-6.6°C 7.0°F-13.9°C 56% 3.0 mph ESE4.8 kmh ESE 4.0 mph6.4 kmh 29.36 in994.2 mb 0.00 in0.0 mm 0.00 in0.0 mm 0.00 in0.0 mm
01:10 AM 20.8°F-6.2°C 6.8°F-14.0°C 54% 2.0 mph ESE3.2 kmh ESE 7.0 mph11.3 kmh 29.35 in993.9 mb 0.00 in0.0 mm 0.00 in0.0 mm 0.00 in0.0 mm
01:00 AM 20.9°F-6.2°C 7.3°F-13.7°C 55% 2.0 mph ESE3.2 kmh ESE 3.0 mph4.8 kmh 29.35 in993.9 mb 0.00 in0.0 mm 0.00 in0.0 mm 0.00 in0.0 mm
12:40 AM 21.1°F-6.1°C 7.1°F-13.8°C 54% 4.0 mph SE6.4 kmh SE 11.0 mph17.7 kmh 29.35 in993.9 mb 0.00 in0.0 mm 0.00 in0.0 mm 0.00 in0.0 mm
12:30 AM 21.0°F-6.1°C 6.2°F-14.3°C 52% 5.0 mph E8.0 kmh E 5.0 mph8.0 kmh 29.36 in994.2 mb 0.00 in0.0 mm 0.00 in0.0 mm 0.00 in0.0 mm
12:10 AM 21.1°F-6.1°C 5.8°F-14.6°C 51% 13.0 mph E20.9 kmh E 16.0 mph25.7 kmh 29.36 in994.2 mb 0.00 in0.0 mm 0.00 in0.0 mm 0.00 in0.0 mm
12:00 AM 21.4°F-5.9°C 6.1°F-14.4°C 51% 7.0 mph E11.3 kmh E 10.0 mph16.1 kmh 29.37 in994.6 mb 0.00 in0.0 mm 0.00 in0.0 mm 0.00 in0.0 mm